sensor_id;sensor_type;location;lat;lon;timestamp;temperature;humidity
59999;DHT22;45859;51.378;6.736;2022-11-15T00:01:52;10.20;99.90
59999;DHT22;45859;51.378;6.736;2022-11-15T00:04:17;10.20;99.90
59999;DHT22;45859;51.378;6.736;2022-11-15T00:06:43;10.20;99.90
59999;DHT22;45859;51.378;6.736;2022-11-15T00:09:09;10.20;99.90
59999;DHT22;45859;51.378;6.736;2022-11-15T00:11:34;10.20;99.90
59999;DHT22;45859;51.378;6.736;2022-11-15T00:14:00;10.20;99.90
59999;DHT22;45859;51.378;6.736;2022-11-15T00:16:27;10.20;99.90
59999;DHT22;45859;51.378;6.736;2022-11-15T00:18:53;10.30;99.90
59999;DHT22;45859;51.378;6.736;2022-11-15T00:21:19;10.30;99.90
59999;DHT22;45859;51.378;6.736;2022-11-15T00:23:45;10.40;99.90
59999;DHT22;45859;51.378;6.736;2022-11-15T00:26:12;10.50;99.90
59999;DHT22;45859;51.378;6.736;2022-11-15T00:28:39;10.50;99.90
59999;DHT22;45859;51.378;6.736;2022-11-15T00:31:07;10.50;99.90
59999;DHT22;45859;51.378;6.736;2022-11-15T00:33:34;10.50;99.90
59999;DHT22;45859;51.378;6.736;2022-11-15T00:36:06;10.50;99.90
59999;DHT22;45859;51.378;6.736;2022-11-15T00:38:33;10.50;99.90
59999;DHT22;45859;51.378;6.736;2022-11-15T00:40:59;10.60;99.90
59999;DHT22;45859;51.378;6.736;2022-11-15T00:43:25;10.60;99.90
59999;DHT22;45859;51.378;6.736;2022-11-15T00:45:50;10.60;99.90
59999;DHT22;45859;51.378;6.736;2022-11-15T00:48:16;10.70;99.90
59999;DHT22;45859;51.378;6.736;2022-11-15T00:50:42;10.70;99.90
59999;DHT22;45859;51.378;6.736;2022-11-15T00:53:07;10.80;99.90
59999;DHT22;45859;51.378;6.736;2022-11-15T00:55:33;10.80;99.90
59999;DHT22;45859;51.378;6.736;2022-11-15T00:57:59;10.80;99.90
59999;DHT22;45859;51.378;6.736;2022-11-15T01:00:24;10.90;99.90
59999;DHT22;45859;51.378;6.736;2022-11-15T01:02:50;10.90;99.90
59999;DHT22;45859;51.378;6.736;2022-11-15T01:05:16;10.90;99.90
59999;DHT22;45859;51.378;6.736;2022-11-15T01:07:41;11.00;99.90
59999;DHT22;45859;51.378;6.736;2022-11-15T01:10:07;11.00;99.90
59999;DHT22;45859;51.378;6.736;2022-11-15T01:12:33;11.00;99.90
59999;DHT22;45859;51.378;6.736;2022-11-15T01:14:59;11.00;99.90
59999;DHT22;45859;51.378;6.736;2022-11-15T01:17:25;11.10;99.90
59999;DHT22;45859;51.378;6.736;2022-11-15T01:19:51;11.10;99.90
59999;DHT22;45859;51.378;6.736;2022-11-15T01:22:17;11.10;99.90
59999;DHT22;45859;51.378;6.736;2022-11-15T01:24:43;11.10;99.90
59999;DHT22;45859;51.378;6.736;2022-11-15T01:27:08;11.20;99.90
59999;DHT22;45859;51.378;6.736;2022-11-15T01:29:34;11.20;99.90
59999;DHT22;45859;51.378;6.736;2022-11-15T01:32:00;11.20;99.90
59999;DHT22;45859;51.378;6.736;2022-11-15T01:34:26;11.20;99.90
59999;DHT22;45859;51.378;6.736;2022-11-15T01:36:51;11.30;99.90
59999;DHT22;45859;51.378;6.736;2022-11-15T01:39:17;11.30;99.90
59999;DHT22;45859;51.378;6.736;2022-11-15T01:41:43;11.30;99.90
59999;DHT22;45859;51.378;6.736;2022-11-15T01:47:02;11.30;99.90
59999;DHT22;45859;51.378;6.736;2022-11-15T01:49:30;11.20;99.90
59999;DHT22;45859;51.378;6.736;2022-11-15T01:51:58;11.20;99.90
59999;DHT22;45859;51.378;6.736;2022-11-15T01:54:26;11.30;99.90
59999;DHT22;45859;51.378;6.736;2022-11-15T01:57:06;11.30;99.90
59999;DHT22;45859;51.378;6.736;2022-11-15T01:59:32;11.30;99.90
59999;DHT22;45859;51.378;6.736;2022-11-15T02:01:58;11.30;99.90
59999;DHT22;45859;51.378;6.736;2022-11-15T02:04:30;11.30;99.90
59999;DHT22;45859;51.378;6.736;2022-11-15T02:06:56;11.30;99.90
59999;DHT22;45859;51.378;6.736;2022-11-15T02:09:23;11.30;99.90
59999;DHT22;45859;51.378;6.736;2022-11-15T02:11:50;11.30;99.90
59999;DHT22;45859;51.378;6.736;2022-11-15T02:14:19;11.30;99.90
59999;DHT22;45859;51.378;6.736;2022-11-15T02:22:16;11.40;99.90
59999;DHT22;45859;51.378;6.736;2022-11-15T02:30:53;11.40;99.90
59999;DHT22;45859;51.378;6.736;2022-11-15T02:36:07;11.40;99.90
59999;DHT22;45859;51.378;6.736;2022-11-15T02:41:28;11.50;99.90
59999;DHT22;45859;51.378;6.736;2022-11-15T02:44:03;11.50;99.90
59999;DHT22;45859;51.378;6.736;2022-11-15T02:49:17;11.60;99.90
59999;DHT22;45859;51.378;6.736;2022-11-15T02:51:45;11.70;99.90
59999;DHT22;45859;51.378;6.736;2022-11-15T02:54:15;11.70;99.90
59999;DHT22;45859;51.378;6.736;2022-11-15T02:56:42;12.30;99.90
59999;DHT22;45859;51.378;6.736;2022-11-15T02:59:37;11.70;99.90
59999;DHT22;45859;51.378;6.736;2022-11-15T03:04:41;11.70;99.90
59999;DHT22;45859;51.378;6.736;2022-11-15T03:10:06;11.70;99.90
59999;DHT22;45859;51.378;6.736;2022-11-15T03:12:46;11.80;99.90
59999;DHT22;45859;51.378;6.736;2022-11-15T03:15:24;12.10;99.90
59999;DHT22;45859;51.378;6.736;2022-11-15T03:18:06;11.80;99.90
59999;DHT22;45859;51.378;6.736;2022-11-15T03:20:36;11.80;99.90
59999;DHT22;45859;51.378;6.736;2022-11-15T03:23:08;11.80;99.90
59999;DHT22;45859;51.378;6.736;2022-11-15T03:25:38;11.90;99.90
59999;DHT22;45859;51.378;6.736;2022-11-15T03:28:06;11.90;99.90
59999;DHT22;45859;51.378;6.736;2022-11-15T03:30:36;11.90;99.90
59999;DHT22;45859;51.378;6.736;2022-11-15T03:33:03;12.00;99.90
59999;DHT22;45859;51.378;6.736;2022-11-15T03:35:34;12.00;99.90
59999;DHT22;45859;51.378;6.736;2022-11-15T03:38:19;12.00;99.90
59999;DHT22;45859;51.378;6.736;2022-11-15T03:43:30;12.10;99.90
59999;DHT22;45859;51.378;6.736;2022-11-15T03:46:03;12.40;99.90
59999;DHT22;45859;51.378;6.736;2022-11-15T03:48:39;12.10;99.90
59999;DHT22;45859;51.378;6.736;2022-11-15T03:51:05;12.50;99.90
59999;DHT22;45859;51.378;6.736;2022-11-15T03:53:31;12.10;99.90
59999;DHT22;45859;51.378;6.736;2022-11-15T03:55:57;12.10;99.90
59999;DHT22;45859;51.378;6.736;2022-11-15T03:58:23;12.50;99.90
59999;DHT22;45859;51.378;6.736;2022-11-15T04:00:49;12.30;99.90
59999;DHT22;45859;51.378;6.736;2022-11-15T04:03:15;12.20;99.90
59999;DHT22;45859;51.378;6.736;2022-11-15T04:05:40;12.20;99.90
59999;DHT22;45859;51.378;6.736;2022-11-15T04:08:06;12.20;99.90
59999;DHT22;45859;51.378;6.736;2022-11-15T04:10:31;12.70;99.90
59999;DHT22;45859;51.378;6.736;2022-11-15T04:12:57;12.20;99.90
59999;DHT22;45859;51.378;6.736;2022-11-15T04:15:23;12.30;99.90
59999;DHT22;45859;51.378;6.736;2022-11-15T04:17:52;12.20;99.90
59999;DHT22;45859;51.378;6.736;2022-11-15T04:20:20;12.30;99.90
59999;DHT22;45859;51.378;6.736;2022-11-15T04:23:09;12.30;99.90
59999;DHT22;45859;51.378;6.736;2022-11-15T04:25:55;12.30;99.90
59999;DHT22;45859;51.378;6.736;2022-11-15T04:28:21;12.40;99.90
59999;DHT22;45859;51.378;6.736;2022-11-15T04:30:47;12.40;99.90
59999;DHT22;45859;51.378;6.736;2022-11-15T04:33:12;12.40;99.90
59999;DHT22;45859;51.378;6.736;2022-11-15T04:35:38;12.40;99.90
59999;DHT22;45859;51.378;6.736;2022-11-15T04:38:06;12.40;99.90
59999;DHT22;45859;51.378;6.736;2022-11-15T04:40:32;12.40;99.90
59999;DHT22;45859;51.378;6.736;2022-11-15T04:42:58;12.40;99.90
59999;DHT22;45859;51.378;6.736;2022-11-15T04:45:24;12.40;99.90
59999;DHT22;45859;51.378;6.736;2022-11-15T04:47:50;12.40;99.90
59999;DHT22;45859;51.378;6.736;2022-11-15T04:50:16;12.40;99.90
59999;DHT22;45859;51.378;6.736;2022-11-15T04:52:43;12.40;99.90
59999;DHT22;45859;51.378;6.736;2022-11-15T04:55:10;12.40;99.90
59999;DHT22;45859;51.378;6.736;2022-11-15T04:57:36;12.50;99.90
59999;DHT22;45859;51.378;6.736;2022-11-15T05:00:04;12.40;99.90
59999;DHT22;45859;51.378;6.736;2022-11-15T05:02:30;12.40;99.90
59999;DHT22;45859;51.378;6.736;2022-11-15T05:05:16;12.40;99.90
59999;DHT22;45859;51.378;6.736;2022-11-15T05:07:41;12.60;99.90
59999;DHT22;45859;51.378;6.736;2022-11-15T05:10:07;12.40;99.90
59999;DHT22;45859;51.378;6.736;2022-11-15T05:12:33;12.40;99.90
59999;DHT22;45859;51.378;6.736;2022-11-15T05:14:58;12.40;99.90
59999;DHT22;45859;51.378;6.736;2022-11-15T05:17:24;12.40;99.90
59999;DHT22;45859;51.378;6.736;2022-11-15T05:19:49;12.40;99.90
59999;DHT22;45859;51.378;6.736;2022-11-15T05:22:17;12.30;99.90
59999;DHT22;45859;51.378;6.736;2022-11-15T05:24:43;12.30;99.90
59999;DHT22;45859;51.378;6.736;2022-11-15T05:27:09;12.30;99.90
59999;DHT22;45859;51.378;6.736;2022-11-15T05:29:34;12.30;99.90
59999;DHT22;45859;51.378;6.736;2022-11-15T05:32:00;12.30;99.90
59999;DHT22;45859;51.378;6.736;2022-11-15T05:34:26;12.30;99.90
59999;DHT22;45859;51.378;6.736;2022-11-15T05:36:52;12.40;99.90
59999;DHT22;45859;51.378;6.736;2022-11-15T05:39:18;12.40;99.90
59999;DHT22;45859;51.378;6.736;2022-11-15T05:42:01;12.20;99.90
59999;DHT22;45859;51.378;6.736;2022-11-15T05:44:27;12.20;99.90
59999;DHT22;45859;51.378;6.736;2022-11-15T05:46:55;12.20;99.90
59999;DHT22;45859;51.378;6.736;2022-11-15T05:49:24;12.20;99.90
59999;DHT22;45859;51.378;6.736;2022-11-15T05:51:52;12.20;99.90
59999;DHT22;45859;51.378;6.736;2022-11-15T05:54:19;12.20;99.90
59999;DHT22;45859;51.378;6.736;2022-11-15T05:56:46;12.30;99.90
59999;DHT22;45859;51.378;6.736;2022-11-15T05:59:12;12.20;99.90
59999;DHT22;45859;51.378;6.736;2022-11-15T06:01:38;12.20;99.90
59999;DHT22;45859;51.378;6.736;2022-11-15T06:04:04;12.20;99.90
59999;DHT22;45859;51.378;6.736;2022-11-15T06:06:30;12.20;99.90
59999;DHT22;45859;51.378;6.736;2022-11-15T06:08:56;12.30;99.90
59999;DHT22;45859;51.378;6.736;2022-11-15T06:11:21;12.20;99.90
59999;DHT22;45859;51.378;6.736;2022-11-15T06:13:47;12.20;99.90
59999;DHT22;45859;51.378;6.736;2022-11-15T06:16:13;12.40;99.90
59999;DHT22;45859;51.378;6.736;2022-11-15T06:18:38;12.20;99.90
59999;DHT22;45859;51.378;6.736;2022-11-15T06:21:04;12.20;99.90
59999;DHT22;45859;51.378;6.736;2022-11-15T06:23:34;12.20;99.90
59999;DHT22;45859;51.378;6.736;2022-11-15T06:26:02;12.20;99.90
59999;DHT22;45859;51.378;6.736;2022-11-15T06:28:29;12.30;99.90
59999;DHT22;45859;51.378;6.736;2022-11-15T06:30:55;12.20;99.90
59999;DHT22;45859;51.378;6.736;2022-11-15T06:33:21;12.20;99.90
59999;DHT22;45859;51.378;6.736;2022-11-15T06:38:32;12.20;99.90
59999;DHT22;45859;51.378;6.736;2022-11-15T06:41:06;11.60;99.90
59999;DHT22;45859;51.378;6.736;2022-11-15T06:43:31;12.20;99.90
59999;DHT22;45859;51.378;6.736;2022-11-15T06:46:01;12.20;99.90
59999;DHT22;45859;51.378;6.736;2022-11-15T06:48:28;12.20;99.90
59999;DHT22;45859;51.378;6.736;2022-11-15T06:50:57;12.20;99.90
59999;DHT22;45859;51.378;6.736;2022-11-15T06:53:23;12.40;99.90
59999;DHT22;45859;51.378;6.736;2022-11-15T06:55:50;12.20;99.90
59999;DHT22;45859;51.378;6.736;2022-11-15T06:58:15;12.40;99.90
59999;DHT22;45859;51.378;6.736;2022-11-15T07:00:41;12.70;99.90
59999;DHT22;45859;51.378;6.736;2022-11-15T07:03:07;12.20;99.90
59999;DHT22;45859;51.378;6.736;2022-11-15T07:05:33;12.90;99.90
59999;DHT22;45859;51.378;6.736;2022-11-15T07:07:59;12.20;99.90
59999;DHT22;45859;51.378;6.736;2022-11-15T07:10:25;12.20;99.90
59999;DHT22;45859;51.378;6.736;2022-11-15T07:12:52;13.00;99.90
59999;DHT22;45859;51.378;6.736;2022-11-15T07:15:20;12.30;99.90
59999;DHT22;45859;51.378;6.736;2022-11-15T07:17:46;12.30;99.90
59999;DHT22;45859;51.378;6.736;2022-11-15T07:20:12;12.30;99.90
59999;DHT22;45859;51.378;6.736;2022-11-15T07:22:39;12.40;99.90
59999;DHT22;45859;51.378;6.736;2022-11-15T07:25:05;12.40;99.90
59999;DHT22;45859;51.378;6.736;2022-11-15T07:27:31;12.50;99.90
59999;DHT22;45859;51.378;6.736;2022-11-15T07:29:56;12.50;99.90
59999;DHT22;45859;51.378;6.736;2022-11-15T07:32:22;12.50;99.90
59999;DHT22;45859;51.378;6.736;2022-11-15T07:34:47;12.50;99.90
59999;DHT22;45859;51.378;6.736;2022-11-15T07:37:13;12.50;99.90
59999;DHT22;45859;51.378;6.736;2022-11-15T07:39:39;12.60;99.90
59999;DHT22;45859;51.378;6.736;2022-11-15T07:42:04;12.60;99.90
59999;DHT22;45859;51.378;6.736;2022-11-15T07:44:48;12.60;99.90
59999;DHT22;45859;51.378;6.736;2022-11-15T07:47:14;12.60;99.90
59999;DHT22;45859;51.378;6.736;2022-11-15T07:49:40;12.60;99.90
59999;DHT22;45859;51.378;6.736;2022-11-15T07:52:05;12.70;99.90
59999;DHT22;45859;51.378;6.736;2022-11-15T07:54:31;13.40;99.90
59999;DHT22;45859;51.378;6.736;2022-11-15T07:56:57;12.40;99.90
59999;DHT22;45859;51.378;6.736;2022-11-15T07:59:22;12.30;99.90
59999;DHT22;45859;51.378;6.736;2022-11-15T08:01:48;12.30;99.90
59999;DHT22;45859;51.378;6.736;2022-11-15T08:04:13;11.50;99.90
59999;DHT22;45859;51.378;6.736;2022-11-15T08:06:39;11.50;99.90
59999;DHT22;45859;51.378;6.736;2022-11-15T08:09:05;11.50;99.90
59999;DHT22;45859;51.378;6.736;2022-11-15T08:11:30;11.40;99.90
59999;DHT22;45859;51.378;6.736;2022-11-15T08:13:56;11.30;99.90
59999;DHT22;45859;51.378;6.736;2022-11-15T08:16:21;11.80;99.90
59999;DHT22;45859;51.378;6.736;2022-11-15T08:18:47;11.20;99.90
59999;DHT22;45859;51.378;6.736;2022-11-15T08:21:19;11.20;99.90
59999;DHT22;45859;51.378;6.736;2022-11-15T08:23:45;11.20;99.90
59999;DHT22;45859;51.378;6.736;2022-11-15T08:26:11;11.10;99.90
59999;DHT22;45859;51.378;6.736;2022-11-15T08:28:37;11.10;99.90
59999;DHT22;45859;51.378;6.736;2022-11-15T08:31:04;11.10;99.90
59999;DHT22;45859;51.378;6.736;2022-11-15T08:33:30;11.10;99.90
59999;DHT22;45859;51.378;6.736;2022-11-15T08:35:57;11.20;99.90
59999;DHT22;45859;51.378;6.736;2022-11-15T08:38:23;11.20;99.90
59999;DHT22;45859;51.378;6.736;2022-11-15T08:40:58;11.20;99.90
59999;DHT22;45859;51.378;6.736;2022-11-15T08:43:25;11.30;99.90
59999;DHT22;45859;51.378;6.736;2022-11-15T08:45:50;11.30;99.90
59999;DHT22;45859;51.378;6.736;2022-11-15T08:48:16;11.30;99.90
59999;DHT22;45859;51.378;6.736;2022-11-15T08:50:42;11.30;99.90
59999;DHT22;45859;51.378;6.736;2022-11-15T08:53:10;12.20;99.90
59999;DHT22;45859;51.378;6.736;2022-11-15T08:55:36;11.40;99.90
59999;DHT22;45859;51.378;6.736;2022-11-15T08:58:03;11.30;99.90
59999;DHT22;45859;51.378;6.736;2022-11-15T09:00:29;11.40;99.90
59999;DHT22;45859;51.378;6.736;2022-11-15T09:02:54;11.40;99.90
59999;DHT22;45859;51.378;6.736;2022-11-15T09:05:20;11.90;99.90
59999;DHT22;45859;51.378;6.736;2022-11-15T09:07:45;11.50;99.90
59999;DHT22;45859;51.378;6.736;2022-11-15T09:10:11;11.60;99.90
59999;DHT22;45859;51.378;6.736;2022-11-15T09:12:37;11.80;99.90
59999;DHT22;45859;51.378;6.736;2022-11-15T09:15:04;12.30;99.90
59999;DHT22;45859;51.378;6.736;2022-11-15T09:17:30;12.40;99.90
59999;DHT22;45859;51.378;6.736;2022-11-15T09:19:55;12.60;99.90
59999;DHT22;45859;51.378;6.736;2022-11-15T09:22:21;12.80;99.90
59999;DHT22;45859;51.378;6.736;2022-11-15T09:24:46;12.90;99.90
59999;DHT22;45859;51.378;6.736;2022-11-15T09:27:12;13.00;99.90
59999;DHT22;45859;51.378;6.736;2022-11-15T09:29:38;12.90;99.90
59999;DHT22;45859;51.378;6.736;2022-11-15T09:32:04;13.00;99.90
59999;DHT22;45859;51.378;6.736;2022-11-15T09:34:30;12.90;99.90
59999;DHT22;45859;51.378;6.736;2022-11-15T09:36:56;12.90;99.90
59999;DHT22;45859;51.378;6.736;2022-11-15T09:39:21;13.00;99.90
59999;DHT22;45859;51.378;6.736;2022-11-15T09:49:33;13.10;99.90
59999;DHT22;45859;51.378;6.736;2022-11-15T09:51:59;13.20;99.90
59999;DHT22;45859;51.378;6.736;2022-11-15T09:54:30;13.20;99.90
59999;DHT22;45859;51.378;6.736;2022-11-15T09:59:55;13.10;99.90
59999;DHT22;45859;51.378;6.736;2022-11-15T10:05:26;13.10;99.90
59999;DHT22;45859;51.378;6.736;2022-11-15T10:10:46;13.10;99.90
59999;DHT22;45859;51.378;6.736;2022-11-15T10:13:31;13.10;99.90
59999;DHT22;45859;51.378;6.736;2022-11-15T10:24:45;13.40;99.90
59999;DHT22;45859;51.378;6.736;2022-11-15T10:27:17;13.50;99.90
59999;DHT22;45859;51.378;6.736;2022-11-15T10:29:45;13.50;99.90
59999;DHT22;45859;51.378;6.736;2022-11-15T10:32:12;13.60;99.90
59999;DHT22;45859;51.378;6.736;2022-11-15T10:34:38;13.50;99.90
59999;DHT22;45859;51.378;6.736;2022-11-15T10:37:03;13.60;99.90
59999;DHT22;45859;51.378;6.736;2022-11-15T10:39:29;13.50;99.90
59999;DHT22;45859;51.378;6.736;2022-11-15T10:41:55;13.60;99.90
59999;DHT22;45859;51.378;6.736;2022-11-15T10:44:28;13.70;99.90
59999;DHT22;45859;51.378;6.736;2022-11-15T10:49:22;13.60;99.90
59999;DHT22;45859;51.378;6.736;2022-11-15T10:54:28;13.60;99.90
59999;DHT22;45859;51.378;6.736;2022-11-15T10:56:57;13.60;99.90
59999;DHT22;45859;51.378;6.736;2022-11-15T10:59:32;13.60;99.90
59999;DHT22;45859;51.378;6.736;2022-11-15T11:01:59;13.50;99.90
59999;DHT22;45859;51.378;6.736;2022-11-15T11:04:25;13.60;99.90
59999;DHT22;45859;51.378;6.736;2022-11-15T11:06:56;13.60;99.90
59999;DHT22;45859;51.378;6.736;2022-11-15T11:09:32;13.50;99.90
59999;DHT22;45859;51.378;6.736;2022-11-15T11:11:59;13.50;99.90
59999;DHT22;45859;51.378;6.736;2022-11-15T11:14:30;13.60;99.90
59999;DHT22;45859;51.378;6.736;2022-11-15T11:17:25;13.60;99.90
59999;DHT22;45859;51.378;6.736;2022-11-15T11:23:03;13.80;99.90
59999;DHT22;45859;51.378;6.736;2022-11-15T11:26:01;13.80;99.90
59999;DHT22;45859;51.378;6.736;2022-11-15T11:28:51;13.70;99.90
59999;DHT22;45859;51.378;6.736;2022-11-15T11:31:41;13.70;99.90
59999;DHT22;45859;51.378;6.736;2022-11-15T11:34:29;13.70;99.90
59999;DHT22;45859;51.378;6.736;2022-11-15T11:45:24;13.70;99.90
59999;DHT22;45859;51.378;6.736;2022-11-15T11:48:12;13.70;99.90
59999;DHT22;45859;51.378;6.736;2022-11-15T11:50:39;13.70;99.90
59999;DHT22;45859;51.378;6.736;2022-11-15T11:53:14;13.70;99.90
59999;DHT22;45859;51.378;6.736;2022-11-15T11:55:56;13.70;99.90
59999;DHT22;45859;51.378;6.736;2022-11-15T11:58:38;13.70;99.90
59999;DHT22;45859;51.378;6.736;2022-11-15T12:01:20;13.70;99.90
59999;DHT22;45859;51.378;6.736;2022-11-15T12:04:14;13.70;99.90
59999;DHT22;45859;51.378;6.736;2022-11-15T12:06:47;13.70;99.90
59999;DHT22;45859;51.378;6.736;2022-11-15T12:16:59;13.70;99.90
59999;DHT22;45859;51.378;6.736;2022-11-15T12:19:25;13.70;99.90
59999;DHT22;45859;51.378;6.736;2022-11-15T12:22:11;13.70;99.90
59999;DHT22;45859;51.378;6.736;2022-11-15T12:24:48;13.70;99.90
59999;DHT22;45859;51.378;6.736;2022-11-15T12:27:40;13.70;99.90
59999;DHT22;45859;51.378;6.736;2022-11-15T12:30:25;13.70;99.90
59999;DHT22;45859;51.378;6.736;2022-11-15T12:32:58;13.70;99.90
59999;DHT22;45859;51.378;6.736;2022-11-15T12:35:42;13.70;99.90
59999;DHT22;45859;51.378;6.736;2022-11-15T12:41:17;13.70;99.90
59999;DHT22;45859;51.378;6.736;2022-11-15T12:43:44;13.70;99.90
59999;DHT22;45859;51.378;6.736;2022-11-15T13:02:30;13.90;99.90
59999;DHT22;45859;51.378;6.736;2022-11-15T13:23:01;13.90;99.90
59999;DHT22;45859;51.378;6.736;2022-11-15T13:25:56;13.90;99.90
59999;DHT22;45859;51.378;6.736;2022-11-15T13:28:36;13.90;99.90
59999;DHT22;45859;51.378;6.736;2022-11-15T13:33:45;14.10;99.90
59999;DHT22;45859;51.378;6.736;2022-11-15T13:36:29;14.00;99.90
59999;DHT22;45859;51.378;6.736;2022-11-15T13:39:23;14.10;99.90
59999;DHT22;45859;51.378;6.736;2022-11-15T13:41:51;14.10;99.90
59999;DHT22;45859;51.378;6.736;2022-11-15T13:44:25;14.20;99.90
59999;DHT22;45859;51.378;6.736;2022-11-15T13:47:07;14.20;99.90
59999;DHT22;45859;51.378;6.736;2022-11-15T13:49:37;14.20;99.90
59999;DHT22;45859;51.378;6.736;2022-11-15T13:52:06;14.20;99.90
59999;DHT22;45859;51.378;6.736;2022-11-15T13:54:40;14.30;99.90
59999;DHT22;45859;51.378;6.736;2022-11-15T13:59:51;14.30;99.90
59999;DHT22;45859;51.378;6.736;2022-11-15T14:02:27;14.40;99.90
59999;DHT22;45859;51.378;6.736;2022-11-15T14:07:29;14.20;99.90
59999;DHT22;45859;51.378;6.736;2022-11-15T14:09:55;14.20;99.90
59999;DHT22;45859;51.378;6.736;2022-11-15T14:12:26;14.20;99.90
59999;DHT22;45859;51.378;6.736;2022-11-15T14:14:52;14.20;99.90
59999;DHT22;45859;51.378;6.736;2022-11-15T14:17:33;14.20;99.90
59999;DHT22;45859;51.378;6.736;2022-11-15T14:20:00;14.20;99.90
59999;DHT22;45859;51.378;6.736;2022-11-15T14:22:27;14.20;99.90
59999;DHT22;45859;51.378;6.736;2022-11-15T14:25:19;14.20;99.90
59999;DHT22;45859;51.378;6.736;2022-11-15T14:30:36;14.20;99.90
59999;DHT22;45859;51.378;6.736;2022-11-15T14:35:45;14.00;99.90
59999;DHT22;45859;51.378;6.736;2022-11-15T14:38:11;14.00;99.90
59999;DHT22;45859;51.378;6.736;2022-11-15T14:40:36;13.90;99.90
59999;DHT22;45859;51.378;6.736;2022-11-15T14:43:02;13.90;99.90
59999;DHT22;45859;51.378;6.736;2022-11-15T14:45:28;13.80;99.90
59999;DHT22;45859;51.378;6.736;2022-11-15T14:47:53;13.80;99.90
59999;DHT22;45859;51.378;6.736;2022-11-15T14:50:20;14.00;99.90
59999;DHT22;45859;51.378;6.736;2022-11-15T14:52:47;13.80;99.90
59999;DHT22;45859;51.378;6.736;2022-11-15T14:55:23;13.80;99.90
59999;DHT22;45859;51.378;6.736;2022-11-15T14:57:49;13.90;99.90
59999;DHT22;45859;51.378;6.736;2022-11-15T15:00:15;13.90;99.90
59999;DHT22;45859;51.378;6.736;2022-11-15T15:02:43;13.90;99.90
59999;DHT22;45859;51.378;6.736;2022-11-15T15:05:21;13.80;99.90
59999;DHT22;45859;51.378;6.736;2022-11-15T15:07:47;13.90;99.90
59999;DHT22;45859;51.378;6.736;2022-11-15T15:10:14;14.40;99.90
59999;DHT22;45859;51.378;6.736;2022-11-15T15:12:40;13.90;99.90
59999;DHT22;45859;51.378;6.736;2022-11-15T15:15:11;13.90;99.90
59999;DHT22;45859;51.378;6.736;2022-11-15T15:17:37;13.90;99.90
59999;DHT22;45859;51.378;6.736;2022-11-15T15:20:03;13.90;99.90
59999;DHT22;45859;51.378;6.736;2022-11-15T15:22:30;13.80;99.90
59999;DHT22;45859;51.378;6.736;2022-11-15T15:24:55;13.80;99.90
59999;DHT22;45859;51.378;6.736;2022-11-15T15:27:21;13.80;99.90
59999;DHT22;45859;51.378;6.736;2022-11-15T15:29:47;13.80;99.90
59999;DHT22;45859;51.378;6.736;2022-11-15T15:32:12;14.00;99.90
59999;DHT22;45859;51.378;6.736;2022-11-15T15:34:38;13.90;99.90
59999;DHT22;45859;51.378;6.736;2022-11-15T15:37:23;13.70;99.90
59999;DHT22;45859;51.378;6.736;2022-11-15T15:39:54;13.70;99.90
59999;DHT22;45859;51.378;6.736;2022-11-15T15:42:21;14.10;99.90
59999;DHT22;45859;51.378;6.736;2022-11-15T15:44:48;14.20;99.90
59999;DHT22;45859;51.378;6.736;2022-11-15T15:47:19;13.70;99.90
59999;DHT22;45859;51.378;6.736;2022-11-15T15:49:46;13.60;99.90
59999;DHT22;45859;51.378;6.736;2022-11-15T15:52:11;13.60;99.90
59999;DHT22;45859;51.378;6.736;2022-11-15T15:54:38;13.60;99.90
59999;DHT22;45859;51.378;6.736;2022-11-15T15:57:05;13.60;99.90
59999;DHT22;45859;51.378;6.736;2022-11-15T15:59:31;13.50;99.90
59999;DHT22;45859;51.378;6.736;2022-11-15T16:01:56;13.60;99.90
59999;DHT22;45859;51.378;6.736;2022-11-15T16:04:22;13.60;99.90
59999;DHT22;45859;51.378;6.736;2022-11-15T16:06:48;13.60;99.90
59999;DHT22;45859;51.378;6.736;2022-11-15T16:09:16;13.70;99.90
59999;DHT22;45859;51.378;6.736;2022-11-15T16:11:44;13.50;99.90
59999;DHT22;45859;51.378;6.736;2022-11-15T16:14:09;13.60;99.90
59999;DHT22;45859;51.378;6.736;2022-11-15T16:16:36;13.50;99.90
59999;DHT22;45859;51.378;6.736;2022-11-15T16:19:03;13.60;99.90
59999;DHT22;45859;51.378;6.736;2022-11-15T16:21:31;13.50;99.90
59999;DHT22;45859;51.378;6.736;2022-11-15T16:23:57;13.50;99.90
59999;DHT22;45859;51.378;6.736;2022-11-15T16:26:27;13.60;99.90
59999;DHT22;45859;51.378;6.736;2022-11-15T16:28:53;13.60;99.90
59999;DHT22;45859;51.378;6.736;2022-11-15T16:31:19;13.60;99.90
59999;DHT22;45859;51.378;6.736;2022-11-15T16:33:47;13.60;99.90
59999;DHT22;45859;51.378;6.736;2022-11-15T16:36:26;13.60;99.90
59999;DHT22;45859;51.378;6.736;2022-11-15T16:38:52;13.60;99.90
59999;DHT22;45859;51.378;6.736;2022-11-15T16:41:18;13.60;99.90
59999;DHT22;45859;51.378;6.736;2022-11-15T16:43:48;13.60;99.90
59999;DHT22;45859;51.378;6.736;2022-11-15T16:46:17;13.60;99.90
59999;DHT22;45859;51.378;6.736;2022-11-15T16:48:43;13.60;99.90
59999;DHT22;45859;51.378;6.736;2022-11-15T16:51:09;13.50;99.90
59999;DHT22;45859;51.378;6.736;2022-11-15T16:53:35;13.60;99.90
59999;DHT22;45859;51.378;6.736;2022-11-15T16:56:01;13.60;99.90
59999;DHT22;45859;51.378;6.736;2022-11-15T16:58:27;13.70;99.90
59999;DHT22;45859;51.378;6.736;2022-11-15T17:00:54;13.60;99.90
59999;DHT22;45859;51.378;6.736;2022-11-15T17:03:21;13.60;99.90
59999;DHT22;45859;51.378;6.736;2022-11-15T17:05:47;13.60;99.90
59999;DHT22;45859;51.378;6.736;2022-11-15T17:08:12;13.60;99.90
59999;DHT22;45859;51.378;6.736;2022-11-15T17:10:39;13.60;99.90
59999;DHT22;45859;51.378;6.736;2022-11-15T17:13:12;13.60;99.90
59999;DHT22;45859;51.378;6.736;2022-11-15T17:15:38;13.60;99.90
59999;DHT22;45859;51.378;6.736;2022-11-15T17:18:04;13.70;99.90
59999;DHT22;45859;51.378;6.736;2022-11-15T17:20:31;13.70;99.90
59999;DHT22;45859;51.378;6.736;2022-11-15T17:22:57;13.70;99.90
59999;DHT22;45859;51.378;6.736;2022-11-15T17:25:22;13.70;99.90
59999;DHT22;45859;51.378;6.736;2022-11-15T17:27:48;13.70;99.90
59999;DHT22;45859;51.378;6.736;2022-11-15T17:30:14;13.70;99.90
59999;DHT22;45859;51.378;6.736;2022-11-15T17:32:41;13.70;99.90
59999;DHT22;45859;51.378;6.736;2022-11-15T17:35:08;14.10;99.90
59999;DHT22;45859;51.378;6.736;2022-11-15T17:37:35;13.70;99.90
59999;DHT22;45859;51.378;6.736;2022-11-15T17:40:01;13.70;99.90
59999;DHT22;45859;51.378;6.736;2022-11-15T17:42:26;13.70;99.90
59999;DHT22;45859;51.378;6.736;2022-11-15T17:44:52;13.70;99.90
59999;DHT22;45859;51.378;6.736;2022-11-15T17:47:18;13.80;99.90
59999;DHT22;45859;51.378;6.736;2022-11-15T17:49:43;13.80;99.90
59999;DHT22;45859;51.378;6.736;2022-11-15T17:52:09;13.80;99.90
59999;DHT22;45859;51.378;6.736;2022-11-15T17:54:35;13.80;99.90